createdAt,value
2019-04-07T00:01:04.638Z,8.30
2019-04-07T00:03:33.339Z,10.20
2019-04-07T00:06:01.756Z,9.30
2019-04-07T00:08:31.195Z,9.80
2019-04-07T00:11:00.214Z,9.70
2019-04-07T00:13:29.389Z,8.67
2019-04-07T00:15:57.955Z,10.07
2019-04-07T00:18:27.115Z,10.43
2019-04-07T00:20:55.583Z,9.10
2019-04-07T00:23:24.055Z,9.43
2019-04-07T00:25:52.507Z,10.27
2019-04-07T00:28:21.191Z,10.27
2019-04-07T00:30:50.019Z,8.50
2019-04-07T00:33:18.435Z,8.63
2019-04-07T00:35:46.903Z,9.43
2019-04-07T00:38:15.347Z,9.70
2019-04-07T00:40:43.813Z,9.17
2019-04-07T00:43:12.249Z,10.00
2019-04-07T00:45:40.658Z,9.53
2019-04-07T00:48:09.136Z,9.67
2019-04-07T00:50:37.508Z,9.10
2019-04-07T00:53:06.533Z,10.13
2019-04-07T00:55:35.016Z,8.57
2019-04-07T00:58:03.662Z,8.70
2019-04-07T01:00:33.761Z,9.60
2019-04-07T01:03:02.184Z,10.80
2019-04-07T01:05:36.737Z,9.20
2019-04-07T01:08:00.970Z,9.60
2019-04-07T01:10:30.469Z,8.97
2019-04-07T01:12:59.030Z,8.13
2019-04-07T01:15:27.894Z,8.53
2019-04-07T01:17:56.361Z,9.13
2019-04-07T01:20:24.773Z,12.07
2019-04-07T01:22:53.188Z,9.40
2019-04-07T01:25:21.582Z,9.53
2019-04-07T01:27:51.198Z,9.30
2019-04-07T01:30:19.942Z,11.70
2019-04-07T01:32:48.452Z,8.77
2019-04-07T01:35:16.894Z,11.07
2019-04-07T01:37:45.863Z,10.33
2019-04-07T01:40:14.539Z,9.10
2019-04-07T01:42:44.597Z,8.13
2019-04-07T01:45:23.807Z,8.53
2019-04-07T01:48:06.133Z,8.30
2019-04-07T01:50:39.275Z,9.87
2019-04-07T01:53:25.978Z,11.23
2019-04-07T01:56:12.025Z,8.37
2019-04-07T01:58:58.355Z,8.03
2019-04-07T02:01:45.068Z,7.80
2019-04-07T02:04:24.546Z,8.57
2019-04-07T02:07:00.811Z,8.17
2019-04-07T02:09:47.897Z,8.43
2019-04-07T02:12:26.867Z,7.83
2019-04-07T02:15:12.973Z,7.73
2019-04-07T02:17:45.720Z,9.77
2019-04-07T02:20:38.780Z,8.53
2019-04-07T02:23:09.555Z,9.83
2019-04-07T02:25:52.745Z,7.73
2019-04-07T02:28:23.041Z,9.60
2019-04-07T02:30:59.027Z,8.77
2019-04-07T02:33:31.519Z,8.90
2019-04-07T02:36:15.687Z,10.70
2019-04-07T02:38:39.041Z,9.57
2019-04-07T02:41:20.708Z,9.47
2019-04-07T02:43:50.747Z,11.17
2019-04-07T02:46:21.182Z,7.13
2019-04-07T02:48:57.746Z,9.07
2019-04-07T02:51:28.036Z,7.70
2019-04-07T02:54:16.262Z,13.13
2019-04-07T02:56:46.317Z,8.67
2019-04-07T02:59:35.323Z,9.00
2019-04-07T03:02:11.000Z,11.30
2019-04-07T03:04:41.601Z,7.67
2019-04-07T03:07:17.785Z,13.30
2019-04-07T03:09:47.863Z,8.90
2019-04-07T03:12:21.198Z,8.93
2019-04-07T03:15:03.850Z,13.17
2019-04-07T03:17:39.721Z,7.90
2019-04-07T03:20:16.747Z,7.23
2019-04-07T03:22:47.162Z,10.67
2019-04-07T03:25:17.351Z,9.97
2019-04-07T03:27:57.118Z,8.80
2019-04-07T03:30:40.960Z,7.97
2019-04-07T03:33:22.650Z,8.30
2019-04-07T03:35:55.356Z,7.17
2019-04-07T03:38:27.408Z,10.90
2019-04-07T03:40:57.545Z,10.27
2019-04-07T03:43:30.607Z,8.97
2019-04-07T03:46:03.687Z,7.23
2019-04-07T03:48:33.846Z,10.10
2019-04-07T03:51:09.590Z,8.23
2019-04-07T03:53:52.153Z,9.30
2019-04-07T03:56:25.398Z,6.83
2019-04-07T03:59:01.228Z,6.00
2019-04-07T04:01:35.248Z,6.43
2019-04-07T04:04:22.412Z,5.50
2019-04-07T04:06:55.413Z,6.00
2019-04-07T04:09:37.094Z,6.47
2019-04-07T04:12:21.321Z,7.57
2019-04-07T04:15:07.011Z,6.67
2019-04-07T04:17:35.430Z,5.90
2019-04-07T04:20:08.384Z,6.33
2019-04-07T04:22:37.735Z,5.90
2019-04-07T04:25:06.792Z,7.37
2019-04-07T04:27:35.469Z,6.50
2019-04-07T04:30:10.238Z,5.80
2019-04-07T04:32:39.535Z,7.43
2019-04-07T04:35:08.516Z,9.27
2019-04-07T04:37:44.200Z,5.10
2019-04-07T04:40:07.559Z,6.83
2019-04-07T04:42:36.004Z,5.60
2019-04-07T04:45:06.346Z,5.63
2019-04-07T04:47:34.794Z,5.57
2019-04-07T04:50:04.820Z,5.07
2019-04-07T04:52:34.052Z,6.77
2019-04-07T04:55:02.425Z,6.50
2019-04-07T04:57:31.889Z,5.63
2019-04-07T05:00:00.567Z,6.03
2019-04-07T05:02:29.914Z,4.90
2019-04-07T05:04:58.426Z,5.00
2019-04-07T05:07:27.078Z,6.97
2019-04-07T05:09:56.681Z,6.10
2019-04-07T05:12:25.880Z,4.83
2019-04-07T05:14:54.794Z,5.93
2019-04-07T05:17:23.404Z,4.97
2019-04-07T05:19:52.185Z,4.43
2019-04-07T05:22:21.194Z,6.23
2019-04-07T05:24:50.467Z,5.60
2019-04-07T05:27:19.002Z,3.80
2019-04-07T05:29:47.851Z,6.57
2019-04-07T05:32:16.869Z,6.07
2019-04-07T05:34:45.598Z,5.40
2019-04-07T05:37:14.132Z,4.83
2019-04-07T05:39:42.618Z,4.40
2019-04-07T05:42:11.034Z,4.40
2019-04-07T05:44:39.796Z,8.80
2019-04-07T05:47:10.904Z,4.20
2019-04-07T05:49:38.917Z,6.97
2019-04-07T05:52:07.578Z,5.57
2019-04-07T05:54:36.193Z,5.33
2019-04-07T05:57:05.362Z,6.13
2019-04-07T05:59:34.023Z,5.33
2019-04-07T06:02:03.069Z,6.07
2019-04-07T06:04:32.202Z,6.93
2019-04-07T06:07:00.724Z,5.33
2019-04-07T06:09:29.627Z,16.03
2019-04-07T06:11:58.712Z,10.43
2019-04-07T06:14:27.350Z,5.33
2019-04-07T06:16:55.995Z,5.80
2019-04-07T06:19:24.985Z,8.10
2019-04-07T06:21:53.462Z,8.33
2019-04-07T06:24:22.505Z,5.60
2019-04-07T06:26:51.063Z,4.93
2019-04-07T06:29:20.035Z,5.33
2019-04-07T06:31:48.536Z,6.37
2019-04-07T06:34:18.777Z,7.50
2019-04-07T06:36:51.517Z,6.20
2019-04-07T06:39:19.260Z,7.13
2019-04-07T06:41:47.662Z,5.73
2019-04-07T06:44:19.901Z,6.77
2019-04-07T06:46:50.954Z,5.40
2019-04-07T06:49:27.493Z,6.43
2019-04-07T06:52:00.654Z,7.37
2019-04-07T06:54:35.359Z,5.30
2019-04-07T06:57:14.838Z,7.87
2019-04-07T06:59:51.346Z,5.47
2019-04-07T07:02:38.001Z,5.53
2019-04-07T07:05:24.152Z,5.13
2019-04-07T07:08:10.010Z,6.20
2019-04-07T07:10:56.425Z,5.30
2019-04-07T07:13:33.473Z,6.70
2019-04-07T07:16:01.576Z,5.97
2019-04-07T07:18:43.882Z,6.20
2019-04-07T07:21:16.694Z,6.40
2019-04-07T07:23:48.931Z,8.83
2019-04-07T07:26:16.062Z,7.27
2019-04-07T07:28:45.642Z,4.73
2019-04-07T07:31:14.418Z,6.70
2019-04-07T07:33:43.910Z,6.00
2019-04-07T07:36:13.385Z,5.50
2019-04-07T07:38:54.516Z,5.90
2019-04-07T07:41:12.118Z,4.57
2019-04-07T07:43:41.466Z,5.10
2019-04-07T07:46:10.135Z,4.60
2019-04-07T07:48:38.930Z,5.63
2019-04-07T07:51:10.928Z,4.83
2019-04-07T07:53:38.320Z,6.33
2019-04-07T07:56:11.329Z,7.10
2019-04-07T07:58:36.985Z,6.47
2019-04-07T08:01:05.545Z,5.63
2019-04-07T08:03:33.957Z,5.27
2019-04-07T08:06:06.937Z,5.23
2019-04-07T08:08:33.128Z,7.20
2019-04-07T08:11:02.715Z,5.67
2019-04-07T08:13:31.363Z,5.33
2019-04-07T08:16:00.492Z,5.80
2019-04-07T08:18:29.616Z,6.67
2019-04-07T08:20:58.902Z,7.10
2019-04-07T08:23:29.750Z,7.70
2019-04-07T08:25:59.115Z,9.23
2019-04-07T08:28:27.592Z,7.23
2019-04-07T08:30:56.112Z,11.40
2019-04-07T08:33:24.831Z,7.37
2019-04-07T08:35:55.264Z,14.53
2019-04-07T08:38:26.728Z,15.60
2019-04-07T08:40:55.115Z,9.63
2019-04-07T08:43:24.679Z,10.53
2019-04-07T08:45:53.665Z,13.97
2019-04-07T08:48:22.191Z,6.53
2019-04-07T08:50:50.614Z,9.33
2019-04-07T08:53:19.208Z,6.77
2019-04-07T08:55:49.879Z,4.97
2019-04-07T08:58:24.939Z,4.00
2019-04-07T09:00:52.626Z,9.23
2019-04-07T09:03:19.906Z,6.80
2019-04-07T09:05:48.419Z,7.27
2019-04-07T09:08:17.808Z,6.10
2019-04-07T09:10:49.523Z,9.03
2019-04-07T09:13:18.590Z,9.00
2019-04-07T09:15:49.690Z,8.63
2019-04-07T09:18:23.296Z,4.77
2019-04-07T09:20:53.411Z,8.40
2019-04-07T09:23:40.472Z,5.57
2019-04-07T09:26:13.089Z,5.70
2019-04-07T09:28:43.332Z,3.77
2019-04-07T09:31:20.432Z,5.30
2019-04-07T09:33:53.986Z,6.30
2019-04-07T09:36:32.348Z,4.13
2019-04-07T09:39:07.862Z,3.73
2019-04-07T09:41:55.144Z,3.87
2019-04-07T09:44:28.963Z,3.63
2019-04-07T09:47:17.255Z,5.13
2019-04-07T09:50:00.507Z,3.57
2019-04-07T09:52:49.035Z,3.10
2019-04-07T09:55:27.899Z,3.97
2019-04-07T09:58:14.865Z,5.43
2019-04-07T10:00:57.712Z,3.37
2019-04-07T10:03:38.169Z,3.00
2019-04-07T10:06:10.620Z,3.13
2019-04-07T10:08:56.467Z,4.73
2019-04-07T10:11:43.927Z,3.43
2019-04-07T10:14:16.819Z,3.17
2019-04-07T10:16:56.333Z,3.23
2019-04-07T10:19:26.937Z,2.97
2019-04-07T10:21:57.063Z,3.03
2019-04-07T10:24:43.049Z,2.83
2019-04-07T10:27:17.627Z,2.57
2019-04-07T10:30:03.545Z,3.03
2019-04-07T10:32:34.009Z,2.73
2019-04-07T10:35:13.636Z,2.90
2019-04-07T10:37:47.449Z,3.23
2019-04-07T10:40:33.475Z,2.70
2019-04-07T10:43:21.744Z,3.50
2019-04-07T10:45:51.960Z,2.70
2019-04-07T10:48:28.653Z,2.77
2019-04-07T10:51:14.879Z,2.50
2019-04-07T10:53:45.168Z,2.67
2019-04-07T10:56:17.741Z,2.17
2019-04-07T10:59:04.755Z,3.53
2019-04-07T11:01:36.221Z,2.23
2019-04-07T11:04:12.691Z,2.30
2019-04-07T11:06:43.863Z,2.33
2019-04-07T11:09:30.507Z,2.23
2019-04-07T11:12:09.833Z,2.30
2019-04-07T11:14:43.062Z,2.20
2019-04-07T11:17:13.926Z,3.03
2019-04-07T11:19:46.825Z,2.20
2019-04-07T11:22:36.101Z,2.30
2019-04-07T11:25:06.420Z,1.70
2019-04-07T11:27:39.865Z,4.40
2019-04-07T11:30:10.029Z,1.80
2019-04-07T11:32:40.300Z,2.13
2019-04-07T11:35:13.722Z,2.40
2019-04-07T11:37:49.605Z,2.30
2019-04-07T11:40:29.276Z,2.70
2019-04-07T11:43:07.064Z,2.23
2019-04-07T11:45:56.126Z,2.43
2019-04-07T11:48:27.510Z,3.27
2019-04-07T11:50:57.688Z,2.30
2019-04-07T11:53:30.491Z,2.00
2019-04-07T11:56:01.467Z,2.30
2019-04-07T11:58:38.662Z,2.53
2019-04-07T12:01:15.695Z,3.37
2019-04-07T12:04:02.724Z,2.80
2019-04-07T12:06:49.589Z,2.57
2019-04-07T12:09:19.640Z,2.70
2019-04-07T12:11:52.617Z,2.80
2019-04-07T12:14:25.643Z,2.30
2019-04-07T12:17:12.569Z,2.30
2019-04-07T12:19:59.194Z,2.47
2019-04-07T12:22:38.092Z,2.40
2019-04-07T12:25:25.800Z,2.43
2019-04-07T12:28:01.509Z,2.60
2019-04-07T12:30:37.988Z,2.20
2019-04-07T12:33:24.238Z,2.10
2019-04-07T12:35:55.770Z,2.60
2019-04-07T12:38:28.879Z,1.90
2019-04-07T12:41:12.313Z,2.40
2019-04-07T12:43:30.705Z,2.30
2019-04-07T12:46:01.260Z,2.43
2019-04-07T12:48:32.020Z,2.17
2019-04-07T12:51:08.437Z,2.30
2019-04-07T12:53:38.985Z,2.40
2019-04-07T12:56:32.345Z,2.40
2019-04-07T12:59:18.065Z,3.73
2019-04-07T13:02:07.859Z,2.40
2019-04-07T13:04:37.086Z,1.90
2019-04-07T13:07:25.296Z,2.13
2019-04-07T13:09:55.340Z,2.00
2019-04-07T13:12:31.168Z,2.17
2019-04-07T13:15:16.638Z,2.13
2019-04-07T13:17:56.303Z,2.60
2019-04-07T13:20:42.670Z,2.07
2019-04-07T13:23:13.626Z,2.10
2019-04-07T13:25:54.320Z,2.50
2019-04-07T13:28:40.160Z,2.23
2019-04-07T13:31:21.987Z,2.40
2019-04-07T13:34:02.767Z,2.53
2019-04-07T13:36:33.343Z,2.17
2019-04-07T13:39:09.928Z,2.73
2019-04-07T13:41:47.599Z,2.40
2019-04-07T13:44:29.510Z,2.50
2019-04-07T13:47:09.471Z,2.60
2019-04-07T13:49:58.986Z,2.43
2019-04-07T13:52:28.030Z,2.50
2019-04-07T13:55:04.637Z,2.77
2019-04-07T13:57:36.024Z,2.63
2019-04-07T14:00:15.027Z,2.50
2019-04-07T14:03:01.384Z,2.53
2019-04-07T14:05:32.100Z,2.67
2019-04-07T14:08:17.224Z,2.70
2019-04-07T14:10:50.415Z,2.67
2019-04-07T14:13:21.018Z,2.50
2019-04-07T14:15:52.001Z,3.07
2019-04-07T14:18:22.391Z,2.20
2019-04-07T14:21:09.422Z,2.73
2019-04-07T14:23:42.364Z,2.67
2019-04-07T14:26:15.740Z,2.83
2019-04-07T14:28:48.328Z,2.80
2019-04-07T14:31:18.373Z,2.87
2019-04-07T14:33:55.605Z,2.70
2019-04-07T14:36:38.166Z,2.97
2019-04-07T14:39:09.643Z,2.83
2019-04-07T14:41:43.214Z,3.13
2019-04-07T14:44:30.421Z,2.70
2019-04-07T14:47:09.678Z,2.70
2019-04-07T14:49:56.192Z,3.17
2019-04-07T14:52:42.655Z,4.67
2019-04-07T14:55:21.451Z,2.83
2019-04-07T14:58:13.080Z,3.00
2019-04-07T15:00:43.914Z,3.00
2019-04-07T15:03:12.449Z,3.47
2019-04-07T15:05:42.527Z,2.77
2019-04-07T15:08:12.571Z,3.40
2019-04-07T15:10:52.774Z,2.90
2019-04-07T15:13:25.799Z,3.23
2019-04-07T15:15:53.146Z,2.97
2019-04-07T15:18:21.641Z,2.93
2019-04-07T15:20:50.541Z,3.10
2019-04-07T15:23:19.843Z,3.13
2019-04-07T15:25:48.385Z,3.03
2019-04-07T15:28:17.487Z,3.60
2019-04-07T15:30:48.827Z,3.30
2019-04-07T15:33:16.283Z,3.00
2019-04-07T15:35:48.682Z,3.57
2019-04-07T15:38:15.403Z,3.40
2019-04-07T15:40:44.880Z,3.77
2019-04-07T15:43:13.370Z,3.57
2019-04-07T15:45:44.388Z,4.23
2019-04-07T15:48:12.491Z,3.37
2019-04-07T15:50:41.727Z,4.13
2019-04-07T15:53:13.452Z,3.20
2019-04-07T15:55:47.598Z,3.57
2019-04-07T15:58:10.792Z,3.53
2019-04-07T16:00:39.222Z,3.60
2019-04-07T16:03:08.571Z,3.30
2019-04-07T16:05:42.212Z,3.57
2019-04-07T16:08:07.181Z,3.77
2019-04-07T16:10:36.004Z,3.53
2019-04-07T16:13:04.764Z,3.50
2019-04-07T16:15:33.234Z,3.33
2019-04-07T16:18:05.460Z,3.70
2019-04-07T16:20:37.176Z,3.80
2019-04-07T16:23:02.033Z,4.13
2019-04-07T16:25:30.497Z,3.90
2019-04-07T16:27:59.064Z,3.77
2019-04-07T16:30:27.504Z,3.80
2019-04-07T16:32:59.698Z,3.67
2019-04-07T16:35:26.353Z,3.77
2019-04-07T16:37:55.398Z,3.60
2019-04-07T16:40:23.935Z,3.37
2019-04-07T16:43:04.785Z,3.70
2019-04-07T16:45:23.285Z,4.00
2019-04-07T16:47:51.715Z,4.37
2019-04-07T16:50:20.679Z,7.30
2019-04-07T16:52:49.825Z,4.00
2019-04-07T16:55:37.222Z,4.20
2019-04-07T16:58:06.319Z,5.00
2019-04-07T17:00:35.583Z,3.80
2019-04-07T17:03:04.444Z,4.53
2019-04-07T17:05:33.374Z,5.40
2019-04-07T17:08:01.814Z,5.23
2019-04-07T17:10:33.872Z,5.73
2019-04-07T17:13:01.737Z,4.63
2019-04-07T17:15:31.641Z,4.83
2019-04-07T17:18:00.299Z,5.57
2019-04-07T17:20:33.328Z,4.40
2019-04-07T17:22:58.889Z,4.90
2019-04-07T17:25:27.286Z,6.73
2019-04-07T17:27:58.726Z,5.23
2019-04-07T17:30:28.098Z,8.37
2019-04-07T17:32:56.648Z,6.03
2019-04-07T17:35:25.017Z,5.60
2019-04-07T17:37:56.574Z,5.53
2019-04-07T17:40:28.867Z,5.77
2019-04-07T17:42:59.690Z,5.40
2019-04-07T17:45:38.820Z,6.03
2019-04-07T17:48:14.538Z,5.53
2019-04-07T17:50:44.584Z,5.60
2019-04-07T17:53:32.870Z,5.40
2019-04-07T17:56:05.601Z,6.03
2019-04-07T17:58:47.934Z,6.70
2019-04-07T18:01:23.528Z,6.23
2019-04-07T18:04:09.325Z,6.80
2019-04-07T18:06:43.966Z,6.80
2019-04-07T18:09:18.025Z,8.00
2019-04-07T18:12:03.054Z,8.50
2019-04-07T18:14:36.324Z,7.33
2019-04-07T18:17:06.614Z,8.03
2019-04-07T18:19:37.542Z,10.83
2019-04-07T18:22:18.236Z,11.80
2019-04-07T18:24:48.724Z,13.70
2019-04-07T18:27:25.337Z,10.83
2019-04-07T18:29:59.623Z,11.00
2019-04-07T18:32:30.717Z,10.00
2019-04-07T18:35:16.871Z,19.77
2019-04-07T18:38:08.834Z,12.27
2019-04-07T18:40:43.997Z,14.30
2019-04-07T18:43:19.025Z,13.63
2019-04-07T18:45:57.828Z,11.87
2019-04-07T18:48:43.892Z,14.13
2019-04-07T18:51:17.769Z,14.97
2019-04-07T18:53:50.675Z,13.93
2019-04-07T18:56:23.837Z,10.73
2019-04-07T18:59:00.185Z,11.93
2019-04-07T19:01:38.897Z,9.73
2019-04-07T19:04:16.956Z,11.20
2019-04-07T19:06:48.416Z,17.93
2019-04-07T19:09:35.964Z,13.50
2019-04-07T19:12:23.488Z,14.53
2019-04-07T19:15:12.049Z,13.73
2019-04-07T19:17:59.578Z,14.40
2019-04-07T19:20:38.384Z,16.97
2019-04-07T19:23:11.115Z,19.93
2019-04-07T19:25:47.795Z,22.47
2019-04-07T19:28:18.860Z,28.87
2019-04-07T19:30:55.080Z,18.53
2019-04-07T19:33:31.084Z,28.17
2019-04-07T19:36:04.811Z,20.03
2019-04-07T19:38:37.546Z,20.60
2019-04-07T19:41:06.897Z,20.53
2019-04-07T19:43:44.672Z,21.50
2019-04-07T19:46:31.558Z,17.57
2019-04-07T19:49:02.317Z,22.80
2019-04-07T19:51:33.948Z,17.20
2019-04-07T19:54:20.394Z,14.77
2019-04-07T19:56:51.087Z,14.00
2019-04-07T19:59:30.184Z,17.23
2019-04-07T20:02:01.027Z,15.47
2019-04-07T20:04:44.244Z,16.60
2019-04-07T20:07:15.976Z,13.63
2019-04-07T20:09:52.544Z,15.20
2019-04-07T20:12:36.305Z,15.20
2019-04-07T20:15:10.946Z,12.20
2019-04-07T20:17:38.840Z,14.13
2019-04-07T20:20:10.997Z,14.37
2019-04-07T20:22:41.496Z,11.00
2019-04-07T20:25:28.019Z,13.23
2019-04-07T20:27:59.359Z,11.13
2019-04-07T20:30:35.636Z,12.13
2019-04-07T20:33:14.830Z,11.27
2019-04-07T20:35:44.951Z,12.93
2019-04-07T20:38:17.979Z,12.77
2019-04-07T20:40:50.798Z,14.70
2019-04-07T20:43:35.909Z,12.83
2019-04-07T20:46:24.061Z,12.53
2019-04-07T20:49:05.623Z,12.20
2019-04-07T20:51:37.873Z,12.93
2019-04-07T20:54:14.055Z,12.30
2019-04-07T20:56:45.886Z,17.27
2019-04-07T20:59:31.440Z,13.87
2019-04-07T21:02:17.110Z,12.37
2019-04-07T21:04:50.085Z,10.60
2019-04-07T21:07:23.352Z,11.30
2019-04-07T21:09:59.958Z,11.23
2019-04-07T21:12:33.562Z,11.53
2019-04-07T21:15:27.464Z,12.60
2019-04-07T21:17:54.415Z,10.73
2019-04-07T21:20:27.770Z,9.30
2019-04-07T21:22:57.896Z,12.67
2019-04-07T21:25:28.068Z,10.43
2019-04-07T21:28:06.071Z,10.10
2019-04-07T21:30:44.661Z,12.53
2019-04-07T21:33:17.483Z,9.83
2019-04-07T21:36:00.025Z,12.03
2019-04-07T21:38:45.414Z,12.00
2019-04-07T21:41:22.150Z,11.93
2019-04-07T21:43:58.257Z,12.43
2019-04-07T21:46:44.788Z,9.73
2019-04-07T21:49:14.872Z,11.33
2019-04-07T21:51:55.333Z,9.93
2019-04-07T21:54:34.739Z,10.33
2019-04-07T21:57:05.903Z,9.37
2019-04-07T21:59:39.626Z,11.43
2019-04-07T22:02:13.579Z,8.57
2019-04-07T22:04:53.044Z,12.67
2019-04-07T22:07:25.047Z,11.00
2019-04-07T22:09:55.211Z,9.57
2019-04-07T22:12:29.524Z,12.90
2019-04-07T22:14:54.817Z,9.00
2019-04-07T22:17:23.466Z,10.83
2019-04-07T22:19:51.910Z,9.60
2019-04-07T22:22:20.319Z,9.73
2019-04-07T22:24:48.736Z,11.30
2019-04-07T22:27:21.202Z,10.10
2019-04-07T22:29:47.312Z,8.80
2019-04-07T22:32:19.276Z,9.90
2019-04-07T22:34:46.182Z,8.60
2019-04-07T22:37:17.212Z,10.60
2019-04-07T22:39:45.642Z,13.07
2019-04-07T22:42:15.882Z,10.27
2019-04-07T22:44:45.249Z,11.10
2019-04-07T22:47:15.449Z,13.90
2019-04-07T22:49:44.002Z,8.83
2019-04-07T22:52:16.006Z,10.37
2019-04-07T22:54:42.575Z,10.73
2019-04-07T22:57:13.859Z,11.87
2019-04-07T22:59:41.826Z,13.03
2019-04-07T23:02:10.401Z,11.23
2019-04-07T23:04:38.894Z,11.37
2019-04-07T23:07:08.209Z,10.03
2019-04-07T23:09:37.029Z,9.07
2019-04-07T23:12:05.617Z,9.67
2019-04-07T23:14:34.030Z,8.90
2019-04-07T23:17:02.504Z,8.57
2019-04-07T23:19:31.011Z,8.10
2019-04-07T23:21:59.601Z,12.63
2019-04-07T23:24:28.850Z,10.93
2019-04-07T23:26:57.464Z,11.03
2019-04-07T23:29:26.209Z,12.33
2019-04-07T23:31:55.576Z,9.93
2019-04-07T23:34:24.136Z,15.50
2019-04-07T23:36:52.596Z,11.27
2019-04-07T23:39:21.522Z,12.67
2019-04-07T23:41:50.044Z,12.67
2019-04-07T23:44:18.456Z,10.20
2019-04-07T23:46:47.705Z,9.70
2019-04-07T23:49:16.229Z,10.23
2019-04-07T23:51:45.524Z,10.87
2019-04-07T23:54:14.384Z,12.40
2019-04-07T23:56:43.649Z,9.20
2019-04-07T23:59:12.140Z,9.53
